Terminal Aerodrome Forecast
Issued by NWS Tulsa, OK

Home | Current Version | Previous Version | Text Only | Print | Product List | Glossary On
Versions: 1 2 3 4 5 6 7 8 9 10 11 12
000
FTUS44 KTSA 272324
TAFFSM
TAF
KFSM 272324Z 2800/2824 23007KT P6SM BKN250
     FM281400 30005KT P6SM OVC050 PROB30 2818/2824 5SM -TSRA BR
      BKN040CB=

USA.gov is the U.S. government's official web portal to all federal, state and local government web resources and services.